CYOW/YOW METAR and TAF weather

Enter ICAO airport designator
Station Type Date Time Source
CYOW METAR 2019/04/25 21:00 UTC NOAA

CYOW 252100Z VRB05KT 15SM FEW035 FEW150 SCT220 14/03 A2988 RMK SC1AC1CI2 SC TR SLP121 DENSITY ALT 400FT


Station Type Date Time Source
CYOW Decoded METAR 2019/04/25 21:00 UTC NOAA

Ottawa Int'L. Ont., Canada (CYOW) 45-19N 075-40W 114M
Apr 25, 2019 - 05:00 PM EDT / 2019.04.25 2100 UTC
Wind: Variable at 6 MPH (5 KT):0
Visibility: 15 mile(s):0
Sky conditions: partly cloudy
Temperature: 57 F (14 C)
Dew Point: 37 F (3 C)
Relative Humidity: 47%
Pressure (altimeter): 29.88 in. Hg (1011 hPa)
ob: CYOW 252100Z VRB05KT 15SM FEW035 FEW150 SCT220 14/03 A2988 RMK SC1AC1CI2 SC TR SLP121 DENSITY ALT 400FT
cycle: 21

Station Type Date Time Source
CYOW TAF 2019/04/25 21:42 UTC NOAA

TAF CYOW 252038Z 2521/2618 VRB03KT P6SM FEW030 SCT120 BKN240
BECMG 2602/2603 08005KT
FM260800 06010KT P6SM BKN120 OVC200
FM261100 06012G22KT P6SM BKN040 OVC080
FM261400 09015G25KT 5SM -RA BR OVC009
FM261700 10012G22KT 3SM RA BR OVC004 PROB40 2617/2618 OVC003
RMK NXT FCST BY 260000Z

Example: see airport list